Time,TemperatureF,DewpointF,PressureIn,WindDirection,WindDirectionDegrees,WindSpeedMPH,WindSpeedGustMPH,Humidity,HourlyPrecipIn,Conditions,Clouds,dailyrainin,SoftwareType,DateUTC
2013-01-15 00:06:00,60.4,60.0,30.11,WSW,251,0.0,-999.0,98,-99.99,,,0.00,weatherlink.com 1.10,2013-01-15 05:06:00,
2013-01-15 00:21:00,60.5,60.0,30.11,WSW,251,0.0,-999.0,97,-99.99,,,0.00,weatherlink.com 1.10,2013-01-15 05:21:00,
2013-01-15 00:36:00,60.2,60.0,30.11,WSW,251,0.0,-999.0,98,-99.99,,,0.00,weatherlink.com 1.10,2013-01-15 05:36:00,
2013-01-15 00:51:00,60.9,60.0,30.11,WSW,254,0.0,-999.0,98,-99.99,,,0.00,weatherlink.com 1.10,2013-01-15 05:51:00,
2013-01-15 01:06:00,60.9,60.0,30.11,WSW,256,0.0,-999.0,97,-99.99,,,0.00,weatherlink.com 1.10,2013-01-15 06:06:00,
2013-01-15 01:21:00,61.0,61.0,30.11,WSW,256,0.0,-999.0,98,-99.99,,,0.00,weatherlink.com 1.10,2013-01-15 06:21:00,
2013-01-15 01:36:00,62.1,62.0,30.11,WSW,246,0.0,-999.0,98,-99.99,,,0.00,weatherlink.com 1.10,2013-01-15 06:36:00,
2013-01-15 01:51:00,61.3,61.0,30.11,West,277,0.0,-999.0,98,-99.99,,,0.00,weatherlink.com 1.10,2013-01-15 06:51:00,
2013-01-15 02:06:00,61.2,61.0,30.11,West,278,0.0,-999.0,98,-99.99,,,0.00,weatherlink.com 1.10,2013-01-15 07:06:00,
2013-01-15 02:21:00,61.0,61.0,30.11,West,278,0.0,-999.0,98,-99.99,,,0.00,weatherlink.com 1.10,2013-01-15 07:21:00,
2013-01-15 02:36:00,60.4,60.0,30.11,West,278,0.0,-999.0,98,-99.99,,,0.00,weatherlink.com 1.10,2013-01-15 07:36:00,
2013-01-15 02:51:00,60.4,60.0,30.11,West,277,0.0,-999.0,98,-99.99,,,0.00,weatherlink.com 1.10,2013-01-15 07:51:00,
2013-01-15 03:06:00,60.4,60.0,30.10,West,277,0.0,-999.0,98,-99.99,,,0.00,weatherlink.com 1.10,2013-01-15 08:06:00,
2013-01-15 03:21:00,60.1,60.0,30.09,West,277,0.0,-999.0,98,-99.99,,,0.00,weatherlink.com 1.10,2013-01-15 08:21:00,
2013-01-15 03:36:00,59.9,59.0,30.09,West,277,0.0,-999.0,98,-99.99,,,0.00,weatherlink.com 1.10,2013-01-15 08:36:00,
2013-01-15 03:51:00,59.8,59.0,30.09,West,277,0.0,-999.0,98,-99.99,,,0.00,weatherlink.com 1.10,2013-01-15 08:51:00,
2013-01-15 04:06:00,60.7,61.0,30.08,West,271,0.0,-999.0,99,-99.99,,,0.00,weatherlink.com 1.10,2013-01-15 09:06:00,
2013-01-15 04:21:00,61.3,-99.9,30.08,WSW,239,0.0,-999.0,-999,-99.99,,,0.00,weatherlink.com 1.10,2013-01-15 09:21:00,
2013-01-15 04:36:00,61.2,61.0,30.07,West,278,0.0,-999.0,98,-99.99,,,0.00,weatherlink.com 1.10,2013-01-15 09:36:00,
2013-01-15 04:51:00,60.9,60.0,30.08,West,278,0.0,-999.0,98,-99.99,,,0.00,weatherlink.com 1.10,2013-01-15 09:51:00,
2013-01-15 05:08:00,60.2,60.0,30.07,West,278,0.0,-999.0,98,-99.99,,,0.00,weatherlink.com 1.10,2013-01-15 10:08:00,
2013-01-15 05:21:00,59.5,59.0,30.07,West,278,0.0,-999.0,98,-99.99,,,0.01,weatherlink.com 1.10,2013-01-15 10:21:00,
2013-01-15 05:36:00,58.7,58.0,30.07,West,278,0.0,-999.0,98,-99.99,,,0.01,weatherlink.com 1.10,2013-01-15 10:36:00,
2013-01-15 05:51:00,58.3,58.0,30.07,West,278,0.0,-999.0,99,-99.99,,,0.01,weatherlink.com 1.10,2013-01-15 10:51:00,
2013-01-15 06:06:00,58.6,58.0,30.07,West,278,0.0,-999.0,99,-99.99,,,0.01,weatherlink.com 1.10,2013-01-15 11:06:00,
2013-01-15 06:21:00,58.9,59.0,30.07,West,278,0.0,-999.0,99,-99.99,,,0.01,weatherlink.com 1.10,2013-01-15 11:21:00,
2013-01-15 06:36:00,59.2,59.0,30.07,NW,322,0.0,-999.0,99,-99.99,,,0.01,weatherlink.com 1.10,2013-01-15 11:36:00,
2013-01-15 06:51:00,60.1,60.0,30.09,North,356,0.0,-999.0,99,-99.99,,,0.01,weatherlink.com 1.10,2013-01-15 11:51:00,
2013-01-15 07:06:00,61.0,61.0,30.09,North,7,6.0,-999.0,99,-99.99,,,0.01,weatherlink.com 1.10,2013-01-15 12:06:00,
2013-01-15 07:21:00,58.4,58.0,30.10,NNE,23,4.0,-999.0,98,-99.99,,,0.01,weatherlink.com 1.10,2013-01-15 12:21:00,
2013-01-15 07:36:00,56.2,56.0,30.11,North,10,7.0,-999.0,98,-99.99,,,0.01,weatherlink.com 1.10,2013-01-15 12:36:00,
2013-01-15 07:51:00,55.1,55.0,30.11,NE,34,0.0,-999.0,99,-99.99,,,0.01,weatherlink.com 1.10,2013-01-15 12:51:00,
2013-01-15 08:06:00,54.5,54.0,30.12,NNE,24,0.0,-999.0,99,-99.99,,,0.01,weatherlink.com 1.10,2013-01-15 13:06:00,
2013-01-15 08:21:00,53.5,53.0,30.12,NNE,21,0.0,-999.0,99,-99.99,,,0.01,weatherlink.com 1.10,2013-01-15 13:21:00,
2013-01-15 08:36:00,53.5,53.0,30.12,NNE,28,4.0,-999.0,99,-99.99,,,0.01,weatherlink.com 1.10,2013-01-15 13:36:00,
2013-01-15 08:51:00,53.5,53.0,30.13,NE,45,2.0,-999.0,99,-99.99,,,0.01,weatherlink.com 1.10,2013-01-15 13:51:00,
2013-01-15 09:06:00,53.5,53.0,30.14,NNE,30,0.0,-999.0,99,-99.99,,,0.01,weatherlink.com 1.10,2013-01-15 14:06:00,
2013-01-15 09:21:00,53.9,54.0,30.14,NNE,32,0.0,-999.0,99,-99.99,,,0.01,weatherlink.com 1.10,2013-01-15 14:21:00,
2013-01-15 09:36:00,54.7,55.0,30.14,NNE,16,2.0,-999.0,99,-99.99,,,0.01,weatherlink.com 1.10,2013-01-15 14:36:00,
2013-01-15 09:51:00,54.8,54.0,30.14,NE,47,0.0,-999.0,98,-99.99,,,0.01,weatherlink.com 1.10,2013-01-15 14:51:00,
2013-01-15 10:06:00,54.8,54.0,30.14,NE,42,0.0,-999.0,98,-99.99,,,0.01,weatherlink.com 1.10,2013-01-15 15:06:00,
2013-01-15 10:21:00,55.3,55.0,30.14,North,4,0.0,-999.0,98,-99.99,,,0.01,weatherlink.com 1.10,2013-01-15 15:21:00,
2013-01-15 10:36:00,56.0,56.0,30.14,NNE,32,0.0,-999.0,98,-99.99,,,0.01,weatherlink.com 1.10,2013-01-15 15:36:00,
2013-01-15 10:51:00,56.3,56.0,30.14,NNE,30,0.0,-999.0,97,-99.99,,,0.01,weatherlink.com 1.10,2013-01-15 15:51:00,
2013-01-15 11:06:00,56.7,56.0,30.13,ENE,62,0.0,-999.0,96,-99.99,,,0.01,weatherlink.com 1.10,2013-01-15 16:06:00,
2013-01-15 11:21:00,56.9,56.0,30.12,NNE,24,0.0,-999.0,95,-99.99,,,0.01,weatherlink.com 1.10,2013-01-15 16:21:00,
2013-01-15 11:36:00,57.8,56.0,30.11,NE,56,0.0,-999.0,93,-99.99,,,0.01,weatherlink.com 1.10,2013-01-15 16:36:00,
2013-01-15 11:51:00,58.4,56.0,30.11,NE,34,0.0,-999.0,92,-99.99,,,0.01,weatherlink.com 1.10,2013-01-15 16:51:00,
2013-01-15 12:06:00,59.0,56.0,30.11,ENE,58,0.0,-999.0,91,-99.99,,,0.01,weatherlink.com 1.10,2013-01-15 17:06:00,
2013-01-15 12:21:00,59.5,57.0,30.09,ENE,59,0.0,-999.0,91,-99.99,,,0.01,weatherlink.com 1.10,2013-01-15 17:21:00,
2013-01-15 12:51:00,61.3,58.0,30.08,ENE,62,0.0,-999.0,88,-99.99,,,0.01,weatherlink.com 1.10,2013-01-15 17:51:00,
2013-01-15 13:06:00,62.3,58.0,30.08,ENE,69,0.0,-999.0,87,-99.99,,,0.01,weatherlink.com 1.10,2013-01-15 18:06:00,
2013-01-15 13:21:00,63.7,60.0,30.08,NNE,27,0.0,-999.0,87,-99.99,,,0.01,weatherlink.com 1.10,2013-01-15 18:21:00,
2013-01-15 13:36:00,65.0,60.0,30.07,NNW,342,0.0,-999.0,84,-99.99,,,0.01,weatherlink.com 1.10,2013-01-15 18:36:00,
2013-01-15 13:51:00,65.5,60.0,30.07,North,0,0.0,-999.0,82,-99.99,,,0.01,weatherlink.com 1.10,2013-01-15 18:51:00,
2013-01-15 14:06:00,64.5,60.0,30.07,North,0,1.0,-999.0,85,-99.99,,,0.01,weatherlink.com 1.10,2013-01-15 19:06:00,
2013-01-15 14:21:00,64.7,61.0,30.08,NNE,31,0.0,-999.0,86,-99.99,,,0.01,weatherlink.com 1.10,2013-01-15 19:21:00,
2013-01-15 14:36:00,64.7,60.0,30.08,ENE,71,4.0,-999.0,85,-99.99,,,0.01,weatherlink.com 1.10,2013-01-15 19:36:00,
2013-01-15 14:51:00,63.9,58.0,30.08,North,0,7.0,-999.0,80,-99.99,,,0.02,weatherlink.com 1.10,2013-01-15 19:51:00,
2013-01-15 15:06:00,62.0,56.0,30.09,NE,35,0.0,-999.0,81,-99.99,,,0.02,weatherlink.com 1.10,2013-01-15 20:06:00,
2013-01-15 15:21:00,61.3,56.0,30.08,NE,34,0.0,-999.0,83,-99.99,,,0.02,weatherlink.com 1.10,2013-01-15 20:21:00,
2013-01-15 15:36:00,59.9,55.0,30.08,ENE,66,7.0,-999.0,85,-99.99,,,0.02,weatherlink.com 1.10,2013-01-15 20:36:00,
2013-01-15 15:51:00,58.1,55.0,30.09,ENE,59,4.0,-999.0,88,-99.99,,,0.02,weatherlink.com 1.10,2013-01-15 20:51:00,
2013-01-15 16:06:00,56.9,55.0,30.09,NE,55,8.0,-999.0,92,-99.99,,,0.02,weatherlink.com 1.10,2013-01-15 21:06:00,
2013-01-15 16:21:00,56.6,54.0,30.09,NE,51,0.0,-999.0,92,-99.99,,,0.02,weatherlink.com 1.10,2013-01-15 21:21:00,
2013-01-15 16:36:00,55.9,54.0,30.10,NE,42,0.0,-999.0,94,-99.99,,,0.02,weatherlink.com 1.10,2013-01-15 21:36:00,
2013-01-15 16:51:00,55.4,54.0,30.10,NE,37,2.0,-999.0,94,-99.99,,,0.02,weatherlink.com 1.10,2013-01-15 21:51:00,
2013-01-15 17:06:00,54.8,53.0,30.10,NNE,28,0.0,-999.0,95,-99.99,,,0.02,weatherlink.com 1.10,2013-01-15 22:06:00,
2013-01-15 17:21:00,54.7,54.0,30.09,NE,41,8.0,-999.0,96,-99.99,,,0.02,weatherlink.com 1.10,2013-01-15 22:21:00,
2013-01-15 17:36:00,54.5,53.0,30.10,NE,56,4.0,-999.0,96,-99.99,,,0.02,weatherlink.com 1.10,2013-01-15 22:36:00,
2013-01-15 17:53:00,54.4,53.0,30.11,NE,52,0.0,-999.0,96,-99.99,,,0.02,weatherlink.com 1.10,2013-01-15 22:53:00,
2013-01-15 18:06:00,54.1,53.0,30.11,NNE,23,7.0,-999.0,96,-99.99,,,0.02,weatherlink.com 1.10,2013-01-15 23:06:00,
2013-01-15 18:21:00,53.9,53.0,30.11,NNE,17,0.0,-999.0,97,-99.99,,,0.02,weatherlink.com 1.10,2013-01-15 23:21:00,
2013-01-15 18:36:00,53.6,53.0,30.11,NNE,30,0.0,-999.0,97,-99.99,,,0.02,weatherlink.com 1.10,2013-01-15 23:36:00,
2013-01-15 18:51:00,53.5,53.0,30.11,NE,42,0.0,-999.0,97,-99.99,,,0.02,weatherlink.com 1.10,2013-01-15 23:51:00,
2013-01-15 19:06:00,53.3,53.0,30.11,ENE,58,0.0,-999.0,97,-99.99,,,0.02,weatherlink.com 1.10,2013-01-16 00:06:00,
2013-01-15 19:21:00,53.2,52.0,30.11,ENE,61,0.0,-999.0,97,-99.99,,,0.02,weatherlink.com 1.10,2013-01-16 00:21:00,
2013-01-15 19:36:00,53.1,52.0,30.11,NE,40,0.0,-999.0,97,-99.99,,,0.02,weatherlink.com 1.10,2013-01-16 00:36:00,
2013-01-15 19:51:00,52.9,52.0,30.10,ENE,61,0.0,-999.0,98,-99.99,,,0.02,weatherlink.com 1.10,2013-01-16 00:51:00,
2013-01-15 20:06:00,52.9,52.0,30.09,NE,42,0.0,-999.0,98,-99.99,,,0.02,weatherlink.com 1.10,2013-01-16 01:06:00,
2013-01-15 20:21:00,52.9,52.0,30.09,NE,54,0.0,-999.0,98,-99.99,,,0.03,weatherlink.com 1.10,2013-01-16 01:21:00,
2013-01-15 20:36:00,52.9,52.0,30.08,NE,34,0.0,-999.0,98,-99.99,,,0.03,weatherlink.com 1.10,2013-01-16 01:36:00,
2013-01-15 20:51:00,53.2,53.0,30.07,East,83,0.0,-999.0,98,-99.99,,,0.03,weatherlink.com 1.10,2013-01-16 01:51:00,
2013-01-15 21:06:00,53.3,53.0,30.07,NNE,30,0.0,-999.0,98,-99.99,,,0.03,weatherlink.com 1.10,2013-01-16 02:06:00,
2013-01-15 21:21:00,53.5,53.0,30.07,NNE,25,0.0,-999.0,98,-99.99,,,0.03,weatherlink.com 1.10,2013-01-16 02:21:00,
2013-01-15 21:36:00,53.6,53.0,30.07,NNE,25,0.0,-999.0,98,-99.99,,,0.04,weatherlink.com 1.10,2013-01-16 02:36:00,
2013-01-15 21:51:00,53.9,53.0,30.07,NE,34,0.0,-999.0,98,-99.99,,,0.05,weatherlink.com 1.10,2013-01-16 02:51:00,
2013-01-15 22:06:00,54.1,54.0,30.06,NNE,28,0.0,-999.0,98,-99.99,,,0.09,weatherlink.com 1.10,2013-01-16 03:06:00,
2013-01-15 22:21:00,54.2,54.0,30.06,NNE,18,0.0,-999.0,98,-99.99,,,0.11,weatherlink.com 1.10,2013-01-16 03:21:00,
2013-01-15 22:36:00,54.5,54.0,30.05,ENE,61,0.0,-999.0,98,-99.99,,,0.13,weatherlink.com 1.10,2013-01-16 03:36:00,
2013-01-15 22:51:00,55.3,55.0,30.04,ENE,65,0.0,-999.0,99,-99.99,,,0.13,weatherlink.com 1.10,2013-01-16 03:51:00,
2013-01-15 23:06:00,55.7,56.0,30.03,ENE,68,0.0,-999.0,99,-99.99,,,0.13,weatherlink.com 1.10,2013-01-16 04:06:00,
2013-01-15 23:21:00,55.9,56.0,30.03,ENE,58,0.0,-999.0,99,-99.99,,,0.13,weatherlink.com 1.10,2013-01-16 04:21:00,
2013-01-15 23:36:00,56.0,56.0,30.03,North,349,0.0,-999.0,99,-99.99,,,0.13,weatherlink.com 1.10,2013-01-16 04:36:00,
2013-01-15 23:51:00,56.0,56.0,30.02,North,349,0.0,-999.0,99,-99.99,,,0.13,weatherlink.com 1.10,2013-01-16 04:51:00,